Time;durP1;ratioP1;P1;durP2;ratioP2;P2;SDS_P1;SDS_P2;PMS_P1;PMS_P2;Temp;Humidity;BMP_temperature;BMP_pressure;BME280_temperature;BME280_humidity;BME280_pressure;Samples;Min_cycle;Max_cycle;Signal;HPM_P1;HPM_P2
2021/04/01 00:00:09;;;;;;;3.53;3.05;;;;;;;19.51;45.20;100712.77;;;;-52
2021/04/01 00:03:09;;;;;;;3.49;3.09;;;;;;;19.50;45.18;100715.67;;;;-52
2021/04/01 00:06:09;;;;;;;3.75;3.15;;;;;;;19.49;45.19;100711.78;;;;-55
2021/04/01 00:09:09;;;;;;;4.27;3.35;;;;;;;19.48;45.19;100711.99;;;;-51
2021/04/01 00:12:09;;;;;;;3.71;3.22;;;;;;;19.47;45.17;100706.23;;;;-51
2021/04/01 00:15:09;;;;;;;4.42;3.27;;;;;;;19.46;45.20;100703.60;;;;-51
2021/04/01 00:18:09;;;;;;;3.73;3.10;;;;;;;19.45;45.18;100699.38;;;;-54
2021/04/01 00:21:09;;;;;;;3.47;3.08;;;;;;;19.44;45.22;100696.34;;;;-54
2021/04/01 00:24:09;;;;;;;3.88;3.09;;;;;;;19.42;45.23;100696.16;;;;-49
2021/04/01 00:27:08;;;;;;;3.27;2.90;;;;;;;19.41;45.24;100694.45;;;;-50
2021/04/01 00:30:09;;;;;;;4.54;3.17;;;;;;;19.41;45.23;100694.95;;;;-49
2021/04/01 00:33:09;;;;;;;3.45;3.00;;;;;;;19.39;45.23;100691.02;;;;-49
2021/04/01 00:36:09;;;;;;;3.98;3.16;;;;;;;19.39;45.22;100688.34;;;;-50
2021/04/01 00:39:09;;;;;;;4.45;3.08;;;;;;;19.37;45.24;100688.89;;;;-50
2021/04/01 00:42:09;;;;;;;3.71;3.03;;;;;;;19.35;45.24;100686.11;;;;-49
2021/04/01 00:45:09;;;;;;;3.75;3.04;;;;;;;19.35;45.23;100686.27;;;;-55
2021/04/01 00:48:09;;;;;;;4.45;3.14;;;;;;;19.34;45.24;100684.64;;;;-49
2021/04/01 00:51:09;;;;;;;3.82;3.03;;;;;;;19.34;45.25;100682.59;;;;-51
2021/04/01 00:54:09;;;;;;;3.34;2.89;;;;;;;19.32;45.23;100678.20;;;;-54
2021/04/01 00:57:09;;;;;;;3.93;2.70;;;;;;;19.31;45.21;100677.28;;;;-55
2021/04/01 01:00:09;;;;;;;3.17;2.87;;;;;;;19.30;45.24;100676.72;;;;-51
2021/04/01 01:03:09;;;;;;;4.02;2.83;;;;;;;19.30;45.23;100676.94;;;;-50
2021/04/01 01:06:09;;;;;;;3.73;3.05;;;;;;;19.28;45.23;100675.72;;;;-51
2021/04/01 01:09:09;;;;;;;3.32;2.81;;;;;;;19.28;45.22;100673.66;;;;-52
2021/04/01 01:12:09;;;;;;;3.33;2.95;;;;;;;19.27;45.19;100671.47;;;;-52
2021/04/01 01:15:09;;;;;;;4.01;3.10;;;;;;;19.26;45.22;100669.36;;;;-52
2021/04/01 01:18:09;;;;;;;4.01;2.80;;;;;;;19.24;45.27;100664.30;;;;-54
2021/04/01 01:21:09;;;;;;;3.34;2.97;;;;;;;19.23;45.25;100660.53;;;;-55
2021/04/01 01:24:09;;;;;;;3.67;3.06;;;;;;;19.22;45.27;100660.54;;;;-49
2021/04/01 01:27:09;;;;;;;3.53;2.90;;;;;;;19.22;45.25;100665.66;;;;-49
2021/04/01 01:30:09;;;;;;;3.17;2.79;;;;;;;19.22;45.26;100664.28;;;;-49
2021/04/01 01:33:15;;;;;;;3.29;2.93;;;;;;;19.21;45.27;100661.25;;;;-51
2021/04/01 01:36:09;;;;;;;3.09;2.79;;;;;;;19.20;45.27;100662.06;;;;-49
2021/04/01 01:39:09;;;;;;;3.28;2.91;;;;;;;19.19;45.23;100657.89;;;;-50
2021/04/01 01:42:09;;;;;;;3.83;2.81;;;;;;;19.19;45.27;100658.06;;;;-49
2021/04/01 01:45:09;;;;;;;3.59;2.87;;;;;;;19.18;45.28;100655.14;;;;-49
2021/04/01 01:48:09;;;;;;;3.17;2.71;;;;;;;19.16;45.26;100655.84;;;;-49
2021/04/01 01:51:09;;;;;;;3.21;2.73;;;;;;;19.16;45.25;100653.48;;;;-49
2021/04/01 01:54:09;;;;;;;3.26;2.96;;;;;;;19.15;45.29;100652.89;;;;-50
2021/04/01 01:57:09;;;;;;;3.28;2.77;;;;;;;19.15;45.27;100654.11;;;;-49
2021/04/01 02:00:08;;;;;;;3.15;2.77;;;;;;;19.14;45.30;100652.49;;;;-49
2021/04/01 02:03:09;;;;;;;2.86;2.59;;;;;;;19.13;45.29;100652.22;;;;-52
2021/04/01 02:06:09;;;;;;;2.99;2.69;;;;;;;19.12;45.32;100654.02;;;;-51
2021/04/01 02:09:09;;;;;;;3.19;2.72;;;;;;;19.12;45.29;100654.75;;;;-52
2021/04/01 02:12:09;;;;;;;3.00;2.70;;;;;;;19.10;45.30;100656.59;;;;-52
2021/04/01 02:15:09;;;;;;;2.98;2.68;;;;;;;19.09;45.33;100658.70;;;;-52
2021/04/01 02:18:09;;;;;;;3.26;2.96;;;;;;;19.09;45.28;100660.06;;;;-55
2021/04/01 02:21:10;;;;;;;3.09;2.73;;;;;;;19.08;45.34;100662.09;;;;-49
2021/04/01 02:24:09;;;;;;;3.13;2.80;;;;;;;19.07;45.30;100663.23;;;;-50
2021/04/01 02:27:09;;;;;;;3.14;2.68;;;;;;;19.07;45.29;100664.61;;;;-49
2021/04/01 02:30:09;;;;;;;3.52;2.50;;;;;;;19.06;45.29;100665.07;;;;-52
2021/04/01 02:33:09;;;;;;;3.00;2.70;;;;;;;19.05;45.32;100662.80;;;;-52
2021/04/01 02:36:08;;;;;;;2.62;2.42;;;;;;;19.04;45.32;100665.86;;;;-51
2021/04/01 02:39:09;;;;;;;2.73;2.42;;;;;;;19.04;45.30;100660.83;;;;-51
2021/04/01 02:42:09;;;;;;;3.14;2.74;;;;;;;19.03;45.32;100660.66;;;;-54
2021/04/01 02:45:09;;;;;;;3.05;2.75;;;;;;;19.03;45.31;100660.02;;;;-50
2021/04/01 02:48:09;;;;;;;3.07;2.67;;;;;;;19.02;45.32;100651.46;;;;-54
2021/04/01 02:51:09;;;;;;;3.95;2.63;;;;;;;19.00;45.32;100647.78;;;;-54
2021/04/01 02:54:09;;;;;;;2.82;2.60;;;;;;;19.00;45.28;100649.73;;;;-49
2021/04/01 02:57:09;;;;;;;3.04;2.73;;;;;;;19.00;45.29;100650.14;;;;-54
2021/04/01 03:00:10;;;;;;;2.54;2.33;;;;;;;18.99;45.28;100653.14;;;;-55
2021/04/01 03:03:10;;;;;;;2.65;2.45;;;;;;;18.98;45.29;100649.95;;;;-54
2021/04/01 03:06:09;;;;;;;2.88;2.51;;;;;;;18.97;45.29;100646.79;;;;-54
2021/04/01 03:09:08;;;;;;;2.60;2.40;;;;;;;18.96;45.31;100644.16;;;;-55
2021/04/01 03:12:09;;;;;;;2.74;2.50;;;;;;;18.95;45.29;100642.95;;;;-54
2021/04/01 03:15:09;;;;;;;2.79;2.49;;;;;;;18.95;45.33;100643.35;;;;-54
2021/04/01 03:18:09;;;;;;;3.20;2.61;;;;;;;18.95;45.31;100643.67;;;;-49
2021/04/01 03:21:09;;;;;;;2.52;2.32;;;;;;;18.94;45.32;100645.03;;;;-50
2021/04/01 03:24:09;;;;;;;2.61;2.41;;;;;;;18.94;45.34;100651.61;;;;-50
2021/04/01 03:27:09;;;;;;;2.57;2.33;;;;;;;18.93;45.33;100657.22;;;;-55
2021/04/01 03:30:09;;;;;;;2.81;2.50;;;;;;;18.93;45.34;100665.34;;;;-54
2021/04/01 03:33:09;;;;;;;2.82;2.55;;;;;;;18.91;45.33;100669.78;;;;-50
2021/04/01 03:36:09;;;;;;;2.75;2.53;;;;;;;18.91;45.33;100677.49;;;;-49
2021/04/01 03:39:09;;;;;;;2.68;2.48;;;;;;;18.91;45.33;100676.69;;;;-50
2021/04/01 03:42:09;;;;;;;2.79;2.59;;;;;;;18.90;45.32;100675.03;;;;-49
2021/04/01 03:45:09;;;;;;;2.69;2.49;;;;;;;18.90;45.35;100674.55;;;;-52
2021/04/01 03:48:09;;;;;;;2.73;2.46;;;;;;;18.90;45.32;100676.89;;;;-52
2021/04/01 03:51:09;;;;;;;2.65;2.37;;;;;;;18.88;45.34;100676.95;;;;-50
2021/04/01 03:54:08;;;;;;;2.97;2.60;;;;;;;18.87;45.33;100673.79;;;;-50
2021/04/01 03:57:09;;;;;;;2.64;2.39;;;;;;;18.87;45.35;100670.54;;;;-51
2021/04/01 04:00:11;;;;;;;2.72;2.38;;;;;;;18.86;45.33;100666.48;;;;-51
2021/04/01 04:03:19;;;;;;;3.29;2.61;;;;;;;18.86;45.35;100666.61;;;;-52
2021/04/01 04:06:18;;;;;;;2.67;2.41;;;;;;;18.86;45.31;100666.53;;;;-52
2021/04/01 04:09:27;;;;;;;2.86;2.60;;;;;;;18.85;45.33;100668.32;;;;-52
2021/04/01 04:12:16;;;;;;;2.82;2.55;;;;;;;18.85;45.35;100667.43;;;;-50
2021/04/01 04:15:11;;;;;;;2.49;2.29;;;;;;;18.83;45.33;100663.66;;;;-50
2021/04/01 04:18:09;;;;;;;3.19;2.35;;;;;;;18.84;45.36;100663.83;;;;-54
2021/04/01 04:21:09;;;;;;;2.99;2.39;;;;;;;18.82;45.36;100664.45;;;;-50
2021/04/01 04:24:10;;;;;;;2.49;2.29;;;;;;;18.82;45.34;100666.27;;;;-49
2021/04/01 04:27:17;;;;;;;2.89;2.43;;;;;;;18.83;45.31;100668.38;;;;-49
2021/04/01 04:30:09;;;;;;;2.59;2.36;;;;;;;18.82;45.33;100660.87;;;;-49
2021/04/01 04:33:09;;;;;;;5.50;3.44;;;;;;;18.65;44.27;100657.15;;;;-50
2021/04/01 04:36:08;;;;;;;6.30;4.21;;;;;;;18.26;44.29;100657.67;;;;-50
2021/04/01 04:39:08;;;;;;;7.15;4.19;;;;;;;18.07;44.32;100661.45;;;;-51
2021/04/01 04:42:09;;;;;;;9.00;4.01;;;;;;;17.97;44.52;100663.15;;;;-53
2021/04/01 04:45:09;;;;;;;7.24;3.91;;;;;;;17.64;45.02;100664.63;;;;-55
2021/04/01 04:48:09;;;;;;;6.57;4.10;;;;;;;17.46;45.33;100669.90;;;;-56
2021/04/01 04:51:09;;;;;;;7.94;4.05;;;;;;;17.70;45.29;100667.25;;;;-56
2021/04/01 04:54:09;;;;;;;5.98;3.87;;;;;;;17.83;45.28;100663.19;;;;-52
2021/04/01 04:57:15;;;;;;;5.79;3.63;;;;;;;17.93;45.25;100663.12;;;;-51
2021/04/01 05:00:25;;;;;;;5.64;3.61;;;;;;;18.02;45.20;100664.38;;;;-58
2021/04/01 05:06:08;;;;;;;5.28;3.19;;;;;;;18.14;45.06;100669.52;;;;-51
2021/04/01 05:09:09;;;;;;;5.95;3.31;;;;;;;18.17;45.06;100668.82;;;;-58
2021/04/01 05:12:09;;;;;;;6.61;3.56;;;;;;;18.21;45.05;100668.72;;;;-57
2021/04/01 05:15:09;;;;;;;3.87;3.27;;;;;;;18.23;45.05;100668.75;;;;-50
2021/04/01 05:18:15;;;;;;;4.08;3.35;;;;;;;18.25;45.05;100672.59;;;;-57
2021/04/01 05:21:09;;;;;;;5.49;3.20;;;;;;;18.27;45.05;100667.59;;;;-58
2021/04/01 05:24:09;;;;;;;5.47;3.23;;;;;;;18.28;45.02;100666.66;;;;-56
2021/04/01 05:27:18;;;;;;;4.87;3.25;;;;;;;18.30;45.05;100670.87;;;;-58
2021/04/01 05:30:09;;;;;;;3.97;2.92;;;;;;;18.30;45.08;100675.82;;;;-51
2021/04/01 05:33:09;;;;;;;3.90;3.25;;;;;;;18.30;45.06;100675.69;;;;-51
2021/04/01 05:36:10;;;;;;;4.67;3.14;;;;;;;18.31;45.08;100679.02;;;;-57
2021/04/01 05:39:11;;;;;;;4.90;3.23;;;;;;;18.31;45.13;100678.13;;;;-57
2021/04/01 05:42:09;;;;;;;3.43;3.08;;;;;;;18.32;45.11;100685.94;;;;-56
2021/04/01 05:45:13;;;;;;;3.45;2.90;;;;;;;18.32;45.12;100688.86;;;;-56
2021/04/01 05:48:15;;;;;;;3.59;3.01;;;;;;;18.33;45.13;100694.13;;;;-51
2021/04/01 05:51:28;;;;;;;4.87;3.13;;;;;;;18.33;45.11;100695.19;;;;-51
2021/04/01 05:55:02;;;;;;;3.90;3.18;;;;;;;18.34;45.15;100702.09;;;;-57
2021/04/01 05:58:15;;;;;;;3.63;3.13;;;;;;;18.34;45.14;100708.09;;;;-51
2021/04/01 06:01:29;;;;;;;3.71;2.85;;;;;;;18.35;45.16;100711.61;;;;-51
2021/04/01 06:04:11;;;;;;;3.31;2.85;;;;;;;18.34;45.13;100714.20;;;;-51
2021/04/01 06:07:12;;;;;;;3.65;2.94;;;;;;;18.35;45.16;100716.07;;;;-51
2021/04/01 06:10:09;;;;;;;3.21;2.91;;;;;;;18.35;45.18;100717.77;;;;-57
2021/04/01 06:13:09;;;;;;;4.41;2.84;;;;;;;18.36;45.18;100718.50;;;;-58
2021/04/01 06:16:09;;;;;;;3.08;2.78;;;;;;;18.36;45.15;100710.88;;;;-57
2021/04/01 06:19:08;;;;;;;3.18;2.72;;;;;;;18.35;45.23;100706.33;;;;-58
2021/04/01 06:22:09;;;;;;;3.16;2.80;;;;;;;18.36;45.23;100707.06;;;;-51
2021/04/01 06:25:09;;;;;;;3.19;2.83;;;;;;;18.36;45.16;100705.47;;;;-50
2021/04/01 06:28:09;;;;;;;3.16;2.81;;;;;;;18.35;45.19;100702.36;;;;-50
2021/04/01 06:31:10;;;;;;;3.21;2.86;;;;;;;18.36;45.20;100697.58;;;;-51
2021/04/01 06:34:09;;;;;;;3.30;2.76;;;;;;;18.36;45.20;100697.58;;;;-58
2021/04/01 06:37:08;;;;;;;2.99;2.69;;;;;;;18.36;45.23;100700.00;;;;-57
2021/04/01 06:40:08;;;;;;;4.47;2.93;;;;;;;18.36;45.24;100708.53;;;;-51
2021/04/01 06:43:09;;;;;;;4.04;2.91;;;;;;;18.36;45.23;100710.83;;;;-56
2021/04/01 06:46:09;;;;;;;3.41;2.89;;;;;;;18.36;45.22;100711.20;;;;-51
2021/04/01 06:49:34;;;;;;;3.22;2.81;;;;;;;18.37;45.18;100705.80;;;;-51
2021/04/01 06:52:10;;;;;;;3.34;2.97;;;;;;;18.36;45.24;100702.39;;;;-51
2021/04/01 06:58:41;;;;;;;3.09;2.69;;;;;;;18.37;45.23;100705.64;;;;-51
2021/04/01 07:01:12;;;;;;;3.14;2.71;;;;;;;18.37;45.22;100709.20;;;;-50
2021/04/01 07:04:09;;;;;;;3.20;2.71;;;;;;;18.38;45.21;100712.37;;;;-51
2021/04/01 07:07:13;;;;;;;2.91;2.61;;;;;;;18.37;45.19;100709.85;;;;-57
2021/04/01 07:10:16;;;;;;;2.71;2.51;;;;;;;18.37;45.21;100710.18;;;;-56
2021/04/01 07:13:09;;;;;;;2.89;2.57;;;;;;;18.38;45.23;100703.61;;;;-57
2021/04/01 07:16:09;;;;;;;3.11;2.78;;;;;;;18.38;45.21;100703.61;;;;-56
2021/04/01 07:23:27;;;;;;;2.99;2.69;;;;;;;18.38;45.16;100702.14;;;;-56
2021/04/01 07:30:58;;;;;;;6.55;2.57;;;;;;;18.40;45.25;100700.96;;;;-58
2021/04/01 07:45:43;;;;;;;3.44;2.73;;;;;;;18.51;45.30;100717.70;;;;-57
2021/04/01 07:48:09;;;;;;;8.10;3.00;;;;;;;18.57;45.77;100717.38;;;;-59
2021/04/01 07:51:09;;;;;;;3.59;2.41;;;;;;;18.62;46.14;100714.11;;;;-53
2021/04/01 07:54:09;;;;;;;3.73;2.63;;;;;;;18.68;46.65;100715.41;;;;-50
2021/04/01 07:57:19;;;;;;;3.87;2.55;;;;;;;18.73;46.21;100713.52;;;;-61
2021/04/01 08:00:14;;;;;;;3.94;2.70;;;;;;;18.80;46.60;100706.89;;;;-55
2021/04/01 08:03:22;;;;;;;3.76;2.60;;;;;;;18.85;46.85;100698.69;;;;-56
2021/04/01 08:06:08;;;;;;;3.97;2.69;;;;;;;18.90;46.74;100696.14;;;;-57
2021/04/01 08:09:10;;;;;;;3.12;2.75;;;;;;;18.94;46.40;100698.88;;;;-52
2021/04/01 08:12:09;;;;;;;3.17;2.65;;;;;;;18.97;46.56;100705.59;;;;-59
2021/04/01 08:15:10;;;;;;;4.22;2.71;;;;;;;19.01;46.56;100712.79;;;;-60
2021/04/01 08:18:25;;;;;;;3.50;2.68;;;;;;;19.04;46.71;100715.16;;;;-54
2021/04/01 08:21:11;;;;;;;2.89;2.49;;;;;;;19.08;46.65;100716.84;;;;-53
2021/04/01 08:24:13;;;;;;;3.52;2.54;;;;;;;19.11;46.64;100709.58;;;;-55
2021/04/01 08:27:15;;;;;;;6.74;2.81;;;;;;;19.13;46.10;100705.19;;;;-51
2021/04/01 08:33:17;;;;;;;3.59;2.67;;;;;;;19.15;45.87;100705.30;;;;-58
2021/04/01 08:36:17;;;;;;;4.03;2.69;;;;;;;19.16;45.83;100705.64;;;;-53
2021/04/01 08:39:08;;;;;;;3.32;2.41;;;;;;;19.17;45.76;100702.55;;;;-58
2021/04/01 08:42:09;;;;;;;2.98;2.47;;;;;;;19.18;45.65;100705.18;;;;-57
2021/04/01 08:46:09;;;;;;;3.56;2.57;;;;;;;19.21;45.48;100704.64;;;;-52
2021/04/01 08:49:09;;;;;;;4.19;2.35;;;;;;;19.21;45.44;100700.81;;;;-52
2021/04/01 08:52:10;;;;;;;3.93;2.51;;;;;;;19.22;45.43;100699.70;;;;-52
2021/04/01 08:56:18;;;;;;;2.75;2.41;;;;;;;19.25;45.25;100695.91;;;;-58
2021/04/01 08:59:08;;;;;;;4.34;2.47;;;;;;;19.27;45.32;100695.93;;;;-57
2021/04/01 09:02:09;;;;;;;4.08;2.49;;;;;;;19.28;45.25;100688.56;;;;-56
2021/04/01 09:05:09;;;;;;;3.16;2.50;;;;;;;19.30;45.15;100685.98;;;;-52
2021/04/01 09:08:08;;;;;;;3.33;2.39;;;;;;;19.33;45.14;100687.46;;;;-52
2021/04/01 09:11:09;;;;;;;3.30;2.36;;;;;;;19.35;45.12;100689.68;;;;-52
2021/04/01 09:14:16;;;;;;;3.06;2.41;;;;;;;19.37;45.10;100691.66;;;;-58
2021/04/01 09:17:11;;;;;;;2.90;2.41;;;;;;;19.39;45.08;100690.70;;;;-58
2021/04/01 09:20:08;;;;;;;3.52;2.42;;;;;;;19.43;45.43;100680.91;;;;-59
2021/04/01 09:23:10;;;;;;;3.76;2.58;;;;;;;19.44;45.44;100675.22;;;;-54
2021/04/01 09:26:09;;;;;;;3.49;2.65;;;;;;;19.47;45.79;100672.74;;;;-54
2021/04/01 09:29:08;;;;;;;5.45;2.60;;;;;;;19.47;45.63;100672.98;;;;-54
2021/04/01 09:32:09;;;;;;;11.21;2.65;;;;;;;19.49;45.45;100670.73;;;;-58
2021/04/01 09:35:09;;;;;;;3.59;2.70;;;;;;;19.51;45.68;100668.72;;;;-54
2021/04/01 09:38:09;;;;;;;4.64;2.49;;;;;;;19.52;45.70;100661.39;;;;-54
2021/04/01 09:41:08;;;;;;;5.43;2.73;;;;;;;19.55;45.55;100659.33;;;;-56
2021/04/01 09:44:09;;;;;;;3.52;2.67;;;;;;;19.57;45.58;100654.06;;;;-54
2021/04/01 09:47:09;;;;;;;4.68;2.65;;;;;;;19.59;46.07;100650.42;;;;-60
2021/04/01 09:50:10;;;;;;;4.39;2.55;;;;;;;19.60;45.74;100648.79;;;;-51
2021/04/01 09:53:12;;;;;;;3.55;2.69;;;;;;;19.62;45.79;100650.52;;;;-57
2021/04/01 09:56:08;;;;;;;3.01;2.36;;;;;;;19.64;45.90;100646.06;;;;-51
2021/04/01 09:59:09;;;;;;;3.11;2.61;;;;;;;19.66;45.98;100648.36;;;;-54
2021/04/01 10:02:09;;;;;;;3.41;2.71;;;;;;;19.68;45.96;100645.05;;;;-54
2021/04/01 10:05:09;;;;;;;4.31;2.55;;;;;;;19.70;46.00;100647.58;;;;-53
2021/04/01 10:08:09;;;;;;;5.51;2.61;;;;;;;19.73;45.73;100641.45;;;;-52
2021/04/01 10:11:09;;;;;;;3.77;2.37;;;;;;;19.75;45.39;100638.05;;;;-52
2021/04/01 10:14:08;;;;;;;3.41;2.60;;;;;;;19.76;45.39;100636.20;;;;-55
2021/04/01 10:17:09;;;;;;;4.51;2.38;;;;;;;19.77;45.35;100632.20;;;;-53
2021/04/01 10:20:09;;;;;;;3.93;2.37;;;;;;;19.79;45.29;100624.66;;;;-52
2021/04/01 10:23:09;;;;;;;2.79;2.43;;;;;;;19.79;45.04;100626.05;;;;-52
2021/04/01 10:26:09;;;;;;;3.09;2.33;;;;;;;19.81;45.11;100621.19;;;;-51
2021/04/01 10:29:11;;;;;;;2.19;1.99;;;;;;;19.80;45.08;100614.44;;;;-51
2021/04/01 10:32:09;;;;;;;4.53;2.41;;;;;;;19.82;45.12;100611.42;;;;-51
2021/04/01 10:35:09;;;;;;;2.65;2.19;;;;;;;19.84;45.01;100609.00;;;;-51
2021/04/01 10:38:11;;;;;;;3.07;2.31;;;;;;;19.84;44.94;100605.61;;;;-56
2021/04/01 10:41:11;;;;;;;2.46;2.18;;;;;;;19.84;44.93;100602.75;;;;-56
2021/04/01 10:44:09;;;;;;;3.30;2.29;;;;;;;19.85;44.92;100605.19;;;;-56
2021/04/01 10:47:08;;;;;;;2.51;2.23;;;;;;;19.86;44.88;100600.22;;;;-56
2021/04/01 10:50:08;;;;;;;2.81;2.20;;;;;;;19.87;44.90;100595.53;;;;-56
2021/04/01 10:53:09;;;;;;;2.31;2.10;;;;;;;19.88;44.90;100590.80;;;;-55
2021/04/01 10:56:09;;;;;;;2.80;2.19;;;;;;;19.88;44.91;100584.98;;;;-55
2021/04/01 10:59:08;;;;;;;2.70;2.29;;;;;;;19.88;44.80;100582.94;;;;-56
2021/04/01 11:02:08;;;;;;;2.36;2.16;;;;;;;19.90;44.84;100582.69;;;;-56
2021/04/01 11:05:09;;;;;;;2.47;2.11;;;;;;;19.91;44.75;100578.72;;;;-55
2021/04/01 11:08:09;;;;;;;3.00;2.19;;;;;;;19.91;44.75;100572.13;;;;-56
2021/04/01 11:11:08;;;;;;;2.36;2.15;;;;;;;19.92;44.73;100567.81;;;;-53
2021/04/01 11:14:09;;;;;;;2.41;2.18;;;;;;;19.91;44.75;100567.58;;;;-52
2021/04/01 11:17:09;;;;;;;2.23;2.03;;;;;;;19.92;44.72;100570.69;;;;-53
2021/04/01 11:20:08;;;;;;;2.80;2.27;;;;;;;19.94;44.76;100574.33;;;;-53
2021/04/01 11:23:08;;;;;;;2.41;2.13;;;;;;;19.95;44.79;100572.57;;;;-53
2021/04/01 11:26:09;;;;;;;2.47;2.10;;;;;;;19.95;44.71;100575.25;;;;-53
2021/04/01 11:29:09;;;;;;;2.57;2.01;;;;;;;19.96;44.61;100579.14;;;;-53
2021/04/01 11:32:08;;;;;;;2.47;2.17;;;;;;;19.96;44.66;100580.15;;;;-53
2021/04/01 11:35:08;;;;;;;2.65;2.12;;;;;;;19.96;44.66;100568.27;;;;-53
2021/04/01 11:38:11;;;;;;;2.57;2.11;;;;;;;19.98;44.62;100562.89;;;;-53
2021/04/01 11:41:09;;;;;;;2.21;2.02;;;;;;;19.99;44.66;100564.62;;;;-55
2021/04/01 11:44:08;;;;;;;2.30;2.10;;;;;;;19.99;44.61;100565.67;;;;-56
2021/04/01 11:47:09;;;;;;;2.20;2.00;;;;;;;19.99;44.59;100561.05;;;;-55
2021/04/01 11:50:09;;;;;;;5.07;2.12;;;;;;;19.98;44.75;100565.25;;;;-54
2021/04/01 11:53:08;;;;;;;3.26;2.55;;;;;;;19.96;44.97;100562.47;;;;-53
2021/04/01 11:56:08;;;;;;;3.55;2.56;;;;;;;19.96;45.14;100565.73;;;;-56
2021/04/01 11:59:09;;;;;;;3.23;2.43;;;;;;;19.95;45.31;100563.30;;;;-57
2021/04/01 12:02:10;;;;;;;3.76;2.51;;;;;;;19.95;45.25;100562.32;;;;-58
2021/04/01 12:05:08;;;;;;;2.73;2.36;;;;;;;19.95;45.39;100565.66;;;;-57
2021/04/01 12:08:09;;;;;;;4.09;2.47;;;;;;;19.98;45.22;100565.66;;;;-51
2021/04/01 12:11:09;;;;;;;3.96;2.30;;;;;;;20.01;45.13;100566.83;;;;-57
2021/04/01 12:14:09;;;;;;;2.59;2.31;;;;;;;20.02;44.94;100561.20;;;;-57
2021/04/01 12:17:08;;;;;;;3.45;2.26;;;;;;;20.04;44.80;100554.95;;;;-57
2021/04/01 12:20:08;;;;;;;2.90;2.30;;;;;;;20.06;44.79;100554.89;;;;-57
2021/04/01 12:23:09;;;;;;;2.61;2.20;;;;;;;20.06;44.80;100553.17;;;;-57
2021/04/01 12:26:08;;;;;;;2.50;2.07;;;;;;;20.07;44.71;100557.34;;;;-57
2021/04/01 12:29:08;;;;;;;2.75;2.46;;;;;;;20.07;44.63;100550.34;;;;-58
2021/04/01 12:32:09;;;;;;;5.36;2.15;;;;;;;20.08;44.86;100547.01;;;;-55
2021/04/01 12:35:09;;;;;;;5.23;2.63;;;;;;;20.10;45.04;100548.81;;;;-58
2021/04/01 12:38:13;;;;;;;8.79;2.71;;;;;;;20.09;45.13;100544.02;;;;-55
2021/04/01 12:41:09;;;;;;;4.60;2.64;;;;;;;20.12;45.48;100540.60;;;;-57
2021/04/01 12:44:08;;;;;;;3.76;2.41;;;;;;;20.16;45.76;100536.56;;;;-55
2021/04/01 12:47:09;;;;;;;4.30;2.67;;;;;;;20.16;45.71;100530.86;;;;-58
2021/04/01 12:50:08;;;;;;;4.93;2.72;;;;;;;20.16;45.61;100527.44;;;;-53
2021/04/01 12:53:09;;;;;;;4.12;2.57;;;;;;;20.16;45.82;100529.64;;;;-55
2021/04/01 12:56:13;;;;;;;6.34;2.75;;;;;;;20.16;45.76;100529.80;;;;-54
2021/04/01 12:59:10;;;;;;;4.39;2.59;;;;;;;20.19;45.36;100527.61;;;;-54
2021/04/01 13:02:09;;;;;;;3.59;2.61;;;;;;;20.19;45.14;100520.14;;;;-53
2021/04/01 13:05:14;;;;;;;3.99;2.49;;;;;;;20.20;45.00;100517.38;;;;-53
2021/04/01 13:08:25;;;;;;;3.69;2.62;;;;;;;20.20;44.94;100508.99;;;;-54
2021/04/01 13:11:08;;;;;;;2.51;2.30;;;;;;;20.20;44.83;100506.47;;;;-59
2021/04/01 13:14:08;;;;;;;2.83;2.48;;;;;;;20.20;44.85;100503.12;;;;-59
2021/04/01 13:17:09;;;;;;;2.86;2.53;;;;;;;20.18;44.72;100498.33;;;;-59
2021/04/01 13:20:09;;;;;;;5.39;3.01;;;;;;;20.16;44.78;100489.11;;;;-58
2021/04/01 13:23:23;;;;;;;4.33;2.77;;;;;;;20.18;45.15;100487.09;;;;-58
2021/04/01 13:26:08;;;;;;;3.48;2.51;;;;;;;20.21;45.37;100482.89;;;;-54
2021/04/01 13:29:09;;;;;;;5.81;2.66;;;;;;;20.24;45.66;100481.26;;;;-59
2021/04/01 13:32:12;;;;;;;6.00;2.48;;;;;;;20.26;45.63;100480.53;;;;-54
2021/04/01 13:35:11;;;;;;;4.41;2.60;;;;;;;20.28;45.71;100470.53;;;;-51
2021/04/01 13:38:11;;;;;;;5.42;2.62;;;;;;;20.31;45.76;100467.19;;;;-55
2021/04/01 13:41:12;;;;;;;4.27;2.65;;;;;;;20.31;45.87;100463.86;;;;-58
2021/04/01 13:44:08;;;;;;;5.39;2.69;;;;;;;20.33;45.52;100463.61;;;;-59
2021/04/01 13:47:08;;;;;;;5.39;2.82;;;;;;;20.32;45.43;100465.75;;;;-43
2021/04/01 13:50:10;;;;;;;5.62;2.69;;;;;;;20.32;45.36;100461.75;;;;-58
2021/04/01 13:53:17;;;;;;;8.07;2.61;;;;;;;20.30;45.12;100461.99;;;;-58
2021/04/01 13:56:15;;;;;;;4.81;2.34;;;;;;;20.29;45.02;100457.69;;;;-59
2021/04/01 14:11:09;;;;;;;4.51;2.31;;;;;;;20.30;44.83;100458.33;;;;-59
2021/04/01 14:14:08;;;;;;;3.92;2.76;;;;;;;20.29;44.75;100452.97;;;;-59
2021/04/01 14:17:09;;;;;;;2.97;2.31;;;;;;;20.29;44.74;100447.25;;;;-60
2021/04/01 14:20:10;;;;;;;2.81;2.29;;;;;;;20.30;44.67;100447.50;;;;-58
2021/04/01 14:23:12;;;;;;;4.20;2.53;;;;;;;20.29;44.70;100442.28;;;;-60
2021/04/01 14:26:13;;;;;;;2.97;2.40;;;;;;;20.31;44.66;100437.17;;;;-58
2021/04/01 14:29:08;;;;;;;3.04;2.41;;;;;;;20.30;44.63;100434.97;;;;-58
2021/04/01 14:32:09;;;;;;;2.73;2.35;;;;;;;20.30;44.58;100432.70;;;;-58
2021/04/01 14:35:08;;;;;;;2.77;2.33;;;;;;;20.29;44.60;100439.52;;;;-58
2021/04/01 14:38:08;;;;;;;3.13;2.40;;;;;;;20.31;44.59;100427.89;;;;-58
2021/04/01 14:41:12;;;;;;;3.04;2.26;;;;;;;20.29;44.93;100421.94;;;;-59
2021/04/01 14:44:14;;;;;;;4.32;2.71;;;;;;;20.30;44.74;100427.33;;;;-59
2021/04/01 14:47:10;;;;;;;5.29;2.72;;;;;;;20.31;44.84;100428.22;;;;-59
2021/04/01 14:50:09;;;;;;;7.17;2.91;;;;;;;20.29;45.55;100418.27;;;;-57
2021/04/01 14:53:16;;;;;;;4.99;2.69;;;;;;;20.32;46.79;100421.55;;;;-59
2021/04/01 14:56:09;;;;;;;4.29;2.53;;;;;;;20.34;46.79;100415.30;;;;-51
2021/04/01 14:59:09;;;;;;;4.53;2.59;;;;;;;20.36;47.37;100416.52;;;;-59
2021/04/01 15:02:11;;;;;;;5.28;2.49;;;;;;;20.37;46.34;100412.28;;;;-59
2021/04/01 15:05:09;;;;;;;7.19;2.65;;;;;;;20.37;45.81;100412.11;;;;-58
2021/04/01 15:08:08;;;;;;;3.56;2.54;;;;;;;20.36;45.65;100409.19;;;;-59
2021/04/01 15:11:08;;;;;;;3.77;2.59;;;;;;;20.36;45.46;100403.73;;;;-60
2021/04/01 15:14:09;;;;;;;4.25;2.33;;;;;;;20.36;45.38;100399.98;;;;-59
2021/04/01 15:17:08;;;;;;;5.69;2.31;;;;;;;20.35;45.29;100403.72;;;;-58
2021/04/01 15:20:08;;;;;;;6.28;2.41;;;;;;;20.35;45.08;100408.27;;;;-59
2021/04/01 15:23:09;;;;;;;3.59;2.28;;;;;;;20.36;45.12;100400.16;;;;-59
2021/04/01 15:26:09;;;;;;;4.27;2.53;;;;;;;20.36;45.01;100400.21;;;;-58
2021/04/01 15:29:08;;;;;;;4.52;2.47;;;;;;;20.35;45.03;100397.69;;;;-59
2021/04/01 15:32:08;;;;;;;4.19;2.32;;;;;;;20.35;44.98;100397.21;;;;-59
2021/04/01 15:35:09;;;;;;;3.51;2.35;;;;;;;20.35;44.90;100394.92;;;;-59
2021/04/01 15:38:08;;;;;;;10.56;2.55;;;;;;;20.36;45.26;100398.09;;;;-53
2021/04/01 15:41:08;;;;;;;4.80;2.39;;;;;;;20.37;45.56;100395.66;;;;-53
2021/04/01 15:44:09;;;;;;;5.29;2.35;;;;;;;20.38;45.83;100396.26;;;;-52
2021/04/01 15:47:09;;;;;;;3.87;2.41;;;;;;;20.40;46.19;100395.84;;;;-51
2021/04/01 15:50:08;;;;;;;3.99;2.45;;;;;;;20.43;45.87;100390.23;;;;-59
2021/04/01 15:53:09;;;;;;;3.96;2.47;;;;;;;20.41;45.51;100392.25;;;;-60
2021/04/01 15:56:08;;;;;;;7.16;2.50;;;;;;;20.41;45.24;100397.39;;;;-56
2021/04/01 15:59:09;;;;;;;5.34;2.61;;;;;;;20.39;45.17;100392.58;;;;-55
2021/04/01 16:02:08;;;;;;;6.49;2.52;;;;;;;20.38;45.03;100385.84;;;;-55
2021/04/01 16:05:09;;;;;;;5.85;2.50;;;;;;;20.38;45.01;100390.39;;;;-63
2021/04/01 16:08:09;;;;;;;5.80;2.59;;;;;;;20.39;45.00;100386.64;;;;-62
2021/04/01 16:11:08;;;;;;;5.33;2.42;;;;;;;20.38;44.99;100390.15;;;;-59
2021/04/01 16:14:09;;;;;;;3.91;2.46;;;;;;;20.38;45.19;100386.56;;;;-60
2021/04/01 16:17:09;;;;;;;4.30;2.69;;;;;;;20.38;45.19;100381.61;;;;-54
2021/04/01 16:20:09;;;;;;;3.57;2.54;;;;;;;20.38;45.27;100387.62;;;;-52
2021/04/01 16:23:08;;;;;;;4.39;2.50;;;;;;;20.39;45.11;100388.75;;;;-57
2021/04/01 16:26:08;;;;;;;6.08;2.71;;;;;;;20.39;45.16;100388.67;;;;-52
2021/04/01 16:29:08;;;;;;;5.73;2.55;;;;;;;20.40;45.32;100393.05;;;;-58
2021/04/01 16:32:09;;;;;;;4.81;2.55;;;;;;;20.40;45.30;100392.52;;;;-58
2021/04/01 16:35:08;;;;;;;4.13;2.49;;;;;;;20.41;45.39;100394.13;;;;-64
2021/04/01 16:38:09;;;;;;;4.28;2.55;;;;;;;20.39;45.38;100392.75;;;;-58
2021/04/01 16:41:09;;;;;;;5.97;2.55;;;;;;;20.36;45.46;100393.48;;;;-53
2021/04/01 16:44:09;;;;;;;7.13;2.80;;;;;;;20.36;45.49;100397.39;;;;-57
2021/04/01 16:47:08;;;;;;;7.47;2.65;;;;;;;20.36;45.21;100387.52;;;;-59
2021/04/01 16:50:08;;;;;;;3.17;2.46;;;;;;;20.38;45.27;100397.28;;;;-54
2021/04/01 16:53:08;;;;;;;5.40;2.27;;;;;;;20.39;45.33;100395.02;;;;-57
2021/04/01 16:56:08;;;;;;;5.63;2.53;;;;;;;20.41;45.05;100394.14;;;;-58
2021/04/01 16:59:08;;;;;;;6.68;2.60;;;;;;;20.40;45.09;100397.72;;;;-63
2021/04/01 17:02:09;;;;;;;5.14;2.44;;;;;;;20.42;45.14;100397.38;;;;-61
2021/04/01 17:05:08;;;;;;;6.41;2.36;;;;;;;20.43;45.26;100400.97;;;;-58
2021/04/01 17:08:08;;;;;;;5.47;2.39;;;;;;;20.44;45.07;100402.83;;;;-59
2021/04/01 17:11:08;;;;;;;4.15;2.39;;;;;;;20.42;45.05;100404.08;;;;-56
2021/04/01 17:14:08;;;;;;;5.02;2.42;;;;;;;20.40;45.06;100407.25;;;;-60
2021/04/01 17:17:08;;;;;;;7.16;2.40;;;;;;;20.41;45.01;100405.03;;;;-58
2021/04/01 17:20:08;;;;;;;2.95;2.13;;;;;;;20.41;44.89;100404.62;;;;-57
2021/04/01 17:23:10;;;;;;;4.60;2.27;;;;;;;20.40;44.84;100404.31;;;;-59
2021/04/01 17:26:08;;;;;;;3.37;2.35;;;;;;;20.40;44.82;100405.12;;;;-57